Time;durP1;ratioP1;P1;durP2;ratioP2;P2;SDS_P1;SDS_P2;PMS_P1;PMS_P2;Temp;Humidity;BMP_temperature;BMP_pressure;BME280_temperature;BME280_humidity;BME280_pressure;Samples;Min_cycle;Max_cycle;Signal;HPM_P1;HPM_P2
2022/01/03 00:00:46;;;;;;;3.27;1.60;;;11.50;89.80;;;;;;4957368;28;20465;-47
2022/01/03 00:03:16;;;;;;;3.20;2.03;;;11.50;89.70;;;;;;4944568;28;20522;-47
2022/01/03 00:05:43;;;;;;;4.20;1.30;;;11.50;89.30;;;;;;4949740;28;20468;-48
2022/01/03 00:08:09;;;;;;;1.80;1.30;;;11.50;89.10;;;;;;4949432;28;21004;-47
2022/01/03 00:10:37;;;;;;;1.37;0.80;;;11.50;88.60;;;;;;4949078;28;20829;-47
2022/01/03 00:13:05;;;;;;;2.40;0.80;;;11.40;88.30;;;;;;4966880;28;20492;-47
2022/01/03 00:15:32;;;;;;;3.60;0.97;;;11.40;88.20;;;;;;4952070;28;20452;-47
2022/01/03 00:17:59;;;;;;;3.13;1.30;;;11.40;88.20;;;;;;4946137;28;20481;-47
2022/01/03 00:20:27;;;;;;;3.13;1.20;;;11.40;88.30;;;;;;4954137;28;20477;-47
2022/01/03 00:22:57;;;;;;;5.60;1.20;;;11.30;88.40;;;;;;4956441;28;20573;-47
2022/01/03 00:25:25;;;;;;;3.37;1.40;;;11.30;88.30;;;;;;4953540;28;20478;-47
2022/01/03 00:28:04;;;;;;;1.00;0.50;;;11.30;88.10;;;;;;4953188;28;20870;-47
2022/01/03 00:30:37;;;;;;;4.30;0.70;;;11.30;88.10;;;;;;4954511;28;20463;-48
2022/01/03 00:33:05;;;;;;;1.73;0.70;;;11.20;88.40;;;;;;4955303;28;20804;-47
2022/01/03 00:35:37;;;;;;;2.10;0.60;;;11.20;88.10;;;;;;4960521;28;20549;-48
2022/01/03 00:38:09;;;;;;;2.00;1.00;;;11.10;88.20;;;;;;4947083;28;20461;-47
2022/01/03 00:40:37;;;;;;;2.40;1.33;;;11.10;88.40;;;;;;4952863;28;20465;-48
2022/01/03 00:43:05;;;;;;;3.00;1.00;;;11.10;88.50;;;;;;4954894;28;20454;-47
2022/01/03 00:45:32;;;;;;;2.33;0.83;;;11.10;88.40;;;;;;4956303;28;20897;-47
2022/01/03 00:47:59;;;;;;;1.70;0.80;;;11.10;88.60;;;;;;4951670;28;20474;-47
2022/01/03 00:50:27;;;;;;;1.37;0.70;;;11.00;88.60;;;;;;4952445;28;20490;-47
2022/01/03 00:52:54;;;;;;;1.77;1.40;;;11.00;88.50;;;;;;4965421;28;20491;-47
2022/01/03 00:55:21;;;;;;;1.57;0.60;;;11.00;88.40;;;;;;4954923;28;20475;-47
2022/01/03 00:58:09;;;;;;;3.27;1.40;;;11.00;87.90;;;;;;4939106;28;20464;-47
2022/01/03 01:00:41;;;;;;;2.40;0.70;;;11.00;87.10;;;;;;4951005;28;20529;-47
2022/01/03 01:03:15;;;;;;;1.20;0.80;;;11.00;85.60;;;;;;4974097;28;20493;-47
2022/01/03 01:05:50;;;;;;;3.30;0.90;;;10.90;85.80;;;;;;4948366;28;20462;-47
2022/01/03 01:08:19;;;;;;;0.70;0.67;;;10.90;85.30;;;;;;4950692;28;20497;-47
2022/01/03 01:10:47;;;;;;;2.13;0.83;;;10.90;85.60;;;;;;4950730;28;20953;-47
2022/01/03 01:13:14;;;;;;;2.10;1.17;;;10.90;85.30;;;;;;4973920;28;20495;-47
2022/01/03 01:15:42;;;;;;;2.00;0.83;;;10.90;85.20;;;;;;4953297;28;21024;-48
2022/01/03 01:18:09;;;;;;;4.53;1.20;;;10.90;85.40;;;;;;4954004;28;20458;-47
2022/01/03 01:20:39;;;;;;;3.47;1.00;;;10.90;85.20;;;;;;4952483;28;20459;-47
2022/01/03 01:23:07;;;;;;;3.70;1.13;;;10.90;85.40;;;;;;4953042;28;20490;-47
2022/01/03 01:28:06;;;;;;;8.77;1.20;;;10.80;85.20;;;;;;4947086;28;20463;-47
2022/01/03 01:30:35;;;;;;;1.73;0.80;;;10.80;85.40;;;;;;4951395;28;20471;-47
2022/01/03 01:33:09;;;;;;;1.50;0.73;;;10.80;85.50;;;;;;4954829;28;20494;-47
2022/01/03 01:35:50;;;;;;;2.73;1.00;;;10.80;85.80;;;;;;4952852;28;20466;-48
2022/01/03 01:38:20;;;;;;;3.27;1.03;;;10.80;85.30;;;;;;4949480;28;20505;-47
2022/01/03 01:40:54;;;;;;;1.00;0.70;;;10.70;85.00;;;;;;4953609;28;20834;-47
2022/01/03 01:43:25;;;;;;;3.10;1.63;;;10.70;83.90;;;;;;4950944;28;20459;-47
2022/01/03 01:45:52;;;;;;;6.70;1.63;;;10.70;83.70;;;;;;4951871;28;20851;-47
2022/01/03 01:48:24;;;;;;;5.07;1.50;;;10.70;83.90;;;;;;4953044;28;20463;-47
2022/01/03 01:50:52;;;;;;;2.53;1.10;;;10.70;83.70;;;;;;4970380;28;20470;-47
2022/01/03 01:53:24;;;;;;;1.97;0.80;;;10.70;83.30;;;;;;4954575;28;20537;-47
2022/01/03 01:55:53;;;;;;;3.10;0.97;;;10.70;83.30;;;;;;4950067;28;20460;-48
2022/01/03 01:58:29;;;;;;;3.83;1.13;;;10.70;83.80;;;;;;4961193;28;20455;-48
2022/01/03 02:00:58;;;;;;;2.93;1.30;;;10.70;83.30;;;;;;4952412;28;20455;-47
2022/01/03 02:03:39;;;;;;;1.90;0.80;;;10.70;83.20;;;;;;4964442;28;20462;-47
2022/01/03 02:06:21;;;;;;;2.93;0.90;;;10.70;82.90;;;;;;4949285;28;20465;-48
2022/01/03 02:08:59;;;;;;;2.20;1.03;;;10.70;82.40;;;;;;4957232;28;20554;-47
2022/01/03 02:11:53;;;;;;;5.33;1.20;;;10.60;82.70;;;;;;4951204;28;20458;-47
2022/01/03 02:14:21;;;;;;;3.83;1.20;;;10.60;82.60;;;;;;4949934;28;20467;-47
2022/01/03 02:16:49;;;;;;;3.10;0.83;;;10.60;82.40;;;;;;4951750;28;20807;-47
2022/01/03 02:19:19;;;;;;;2.67;1.40;;;10.60;82.50;;;;;;4952461;28;20514;-47
2022/01/03 02:21:46;;;;;;;2.93;0.90;;;10.60;82.10;;;;;;4952438;28;21143;-47
2022/01/03 02:24:13;;;;;;;4.57;0.97;;;10.60;82.20;;;;;;4966719;28;20539;-47
2022/01/03 02:26:40;;;;;;;3.67;1.03;;;10.60;82.10;;;;;;4954557;28;20467;-47
2022/01/03 02:29:07;;;;;;;5.93;1.40;;;10.50;82.40;;;;;;4951059;28;20885;-47
2022/01/03 02:31:36;;;;;;;3.03;1.10;;;10.50;81.40;;;;;;4956694;28;20514;-47
2022/01/03 02:34:04;;;;;;;2.20;1.00;;;10.50;82.00;;;;;;4949491;28;20451;-47
2022/01/03 02:36:32;;;;;;;1.77;0.90;;;10.40;82.10;;;;;;4953026;28;20469;-47
2022/01/03 02:38:59;;;;;;;3.07;1.00;;;10.50;82.20;;;;;;4965938;28;20998;-48
2022/01/03 02:41:26;;;;;;;4.87;1.47;;;10.50;81.80;;;;;;4954156;28;21082;-47
2022/01/03 02:43:53;;;;;;;3.50;1.00;;;10.50;82.00;;;;;;4948533;28;20455;-47
2022/01/03 02:46:20;;;;;;;6.33;1.00;;;10.50;82.20;;;;;;4967580;28;20458;-48
2022/01/03 02:48:46;;;;;;;2.00;1.07;;;10.50;81.90;;;;;;4949057;28;20470;-48
2022/01/03 02:51:14;;;;;;;2.60;1.03;;;10.50;82.00;;;;;;4954346;28;20456;-50
2022/01/03 02:53:41;;;;;;;6.17;1.70;;;10.50;82.00;;;;;;4956325;28;20490;-50
2022/01/03 02:56:07;;;;;;;1.90;1.23;;;10.50;82.00;;;;;;4954167;28;20461;-50
2022/01/03 02:58:34;;;;;;;12.43;1.60;;;10.50;82.20;;;;;;4951910;28;20462;-51
2022/01/03 03:01:01;;;;;;;3.23;1.10;;;10.50;82.00;;;;;;4968769;28;20452;-51
2022/01/03 03:03:29;;;;;;;3.27;1.33;;;10.40;81.90;;;;;;4951135;28;20541;-51
2022/01/03 03:05:58;;;;;;;7.23;1.77;;;10.40;82.60;;;;;;4957423;28;20451;-50
2022/01/03 03:08:25;;;;;;;3.37;1.20;;;10.40;82.40;;;;;;4952737;28;20454;-49
2022/01/03 03:10:52;;;;;;;3.60;1.00;;;10.40;82.10;;;;;;4956013;28;20459;-51
2022/01/03 03:13:19;;;;;;;5.40;1.07;;;10.40;82.50;;;;;;4951348;28;20483;-51
2022/01/03 03:15:46;;;;;;;2.80;1.07;;;10.50;82.80;;;;;;4957299;28;20778;-50
2022/01/03 03:18:13;;;;;;;2.40;1.23;;;10.50;82.50;;;;;;4954925;28;20680;-51
2022/01/03 03:20:43;;;;;;;2.40;1.40;;;10.60;82.70;;;;;;4975271;28;21044;-52
2022/01/03 03:23:10;;;;;;;4.17;1.30;;;10.60;82.40;;;;;;4954529;28;20493;-52
2022/01/03 03:25:37;;;;;;;3.87;1.20;;;10.60;82.30;;;;;;4966784;28;20859;-51
2022/01/03 03:28:11;;;;;;;5.03;1.00;;;10.60;82.60;;;;;;4960277;28;20462;-50
2022/01/03 03:30:44;;;;;;;4.90;1.30;;;10.70;82.50;;;;;;4955839;28;20471;-51
2022/01/03 03:33:13;;;;;;;2.83;0.83;;;10.70;82.50;;;;;;4945050;28;20490;-50
2022/01/03 03:35:42;;;;;;;1.47;0.90;;;10.60;82.40;;;;;;4954434;28;20455;-50
2022/01/03 03:38:10;;;;;;;3.83;1.00;;;10.60;82.40;;;;;;4950783;28;20944;-50
2022/01/03 03:40:37;;;;;;;1.90;1.10;;;10.60;82.30;;;;;;4950432;28;20965;-50
2022/01/03 03:43:04;;;;;;;4.97;1.20;;;10.70;83.30;;;;;;4952529;28;20459;-50
2022/01/03 03:45:32;;;;;;;2.93;1.17;;;10.70;84.30;;;;;;4964551;28;20486;-50
2022/01/03 03:48:01;;;;;;;6.27;1.10;;;10.60;84.90;;;;;;4950379;28;20506;-49
2022/01/03 03:50:28;;;;;;;5.53;1.10;;;10.60;85.50;;;;;;4952794;28;20458;-49
2022/01/03 03:52:55;;;;;;;2.07;0.70;;;10.60;85.20;;;;;;4949629;28;20501;-50
2022/01/03 03:55:22;;;;;;;3.03;0.87;;;10.50;85.70;;;;;;4965740;28;21035;-47
2022/01/03 03:57:49;;;;;;;2.83;0.63;;;10.50;85.40;;;;;;4951834;28;20481;-47
2022/01/03 04:00:18;;;;;;;2.20;0.67;;;10.40;85.70;;;;;;4946627;28;20462;-47
2022/01/03 04:02:45;;;;;;;1.17;0.60;;;10.30;86.30;;;;;;4949223;28;20451;-47
2022/01/03 04:05:13;;;;;;;2.00;0.50;;;10.30;86.00;;;;;;4948145;28;20836;-46
2022/01/03 04:07:40;;;;;;;0.87;0.40;;;10.30;85.90;;;;;;4950714;28;24321;-46
2022/01/03 04:10:09;;;;;;;0.77;0.53;;;10.20;86.40;;;;;;4951219;28;20567;-46
2022/01/03 04:12:36;;;;;;;1.13;0.50;;;10.20;86.70;;;;;;4949799;28;20495;-46
2022/01/03 04:15:04;;;;;;;1.50;0.50;;;10.20;86.60;;;;;;4950366;28;20470;-46
2022/01/03 04:17:31;;;;;;;5.20;0.60;;;10.20;86.60;;;;;;4948088;28;20466;-47
2022/01/03 04:19:57;;;;;;;0.80;0.40;;;10.10;86.90;;;;;;4948715;28;20820;-47
2022/01/03 04:22:24;;;;;;;2.00;0.77;;;10.10;86.30;;;;;;4933884;28;20469;-46
2022/01/03 04:24:51;;;;;;;1.43;0.40;;;10.10;86.50;;;;;;4950655;28;20486;-46
2022/01/03 04:27:18;;;;;;;7.03;0.70;;;10.10;86.40;;;;;;4965976;28;20478;-46
2022/01/03 04:29:44;;;;;;;0.70;0.50;;;10.10;86.00;;;;;;4966604;28;20478;-46
2022/01/03 04:32:11;;;;;;;2.37;0.50;;;10.10;86.20;;;;;;4951586;28;20517;-47
2022/01/03 04:34:38;;;;;;;3.63;0.90;;;10.10;86.10;;;;;;4949258;28;20929;-46
2022/01/03 04:37:09;;;;;;;1.67;1.00;;;10.10;85.90;;;;;;4948846;28;20518;-46
2022/01/03 04:39:36;;;;;;;1.33;0.60;;;10.10;85.80;;;;;;4940082;28;20553;-46
2022/01/03 04:42:03;;;;;;;1.77;0.50;;;10.10;85.60;;;;;;4947165;28;20467;-46
2022/01/03 04:44:31;;;;;;;1.97;0.77;;;10.10;85.60;;;;;;4946705;28;20973;-46
2022/01/03 04:46:59;;;;;;;2.33;0.60;;;10.10;85.70;;;;;;4946873;28;20466;-46
2022/01/03 04:49:26;;;;;;;1.07;0.50;;;10.10;85.50;;;;;;4950552;28;20459;-46
2022/01/03 04:51:53;;;;;;;3.10;0.80;;;10.00;85.40;;;;;;4950544;28;20474;-47
2022/01/03 04:54:20;;;;;;;0.83;0.50;;;10.00;85.50;;;;;;4951017;28;20474;-47
2022/01/03 04:56:47;;;;;;;2.30;0.60;;;10.00;85.50;;;;;;4947987;28;20466;-46
2022/01/03 04:59:14;;;;;;;2.30;0.60;;;10.00;85.60;;;;;;4962413;28;20489;-46
2022/01/03 05:01:41;;;;;;;1.00;0.50;;;10.00;85.40;;;;;;4963011;28;20474;-46
2022/01/03 05:04:08;;;;;;;5.03;0.97;;;10.00;85.00;;;;;;4945213;28;20949;-46
2022/01/03 05:06:35;;;;;;;0.80;0.50;;;10.00;85.10;;;;;;4967598;28;20493;-46
2022/01/03 05:09:02;;;;;;;1.80;0.63;;;10.00;85.50;;;;;;4959418;28;20467;-46
2022/01/03 05:11:29;;;;;;;1.43;0.70;;;10.00;85.60;;;;;;4953379;28;20473;-47
2022/01/03 05:13:56;;;;;;;1.50;0.60;;;10.00;85.40;;;;;;4958397;28;21015;-48
2022/01/03 05:16:23;;;;;;;0.60;0.57;;;10.00;86.20;;;;;;4956174;28;20475;-48
2022/01/03 05:18:50;;;;;;;1.60;0.50;;;10.00;85.70;;;;;;4952779;28;20558;-47
2022/01/03 05:21:17;;;;;;;2.80;0.70;;;10.00;86.00;;;;;;4965541;28;20474;-48
2022/01/03 05:23:43;;;;;;;1.50;0.57;;;10.00;86.10;;;;;;4938370;28;21051;-47
2022/01/03 05:26:11;;;;;;;3.23;0.90;;;10.10;86.10;;;;;;4953353;28;21007;-47
2022/01/03 05:28:38;;;;;;;1.47;0.63;;;10.00;86.30;;;;;;4932700;28;20467;-47
2022/01/03 05:31:06;;;;;;;1.20;0.73;;;10.00;86.30;;;;;;4951848;28;21135;-47
2022/01/03 05:33:32;;;;;;;2.67;0.93;;;10.10;86.30;;;;;;4952197;28;20605;-48
2022/01/03 05:35:59;;;;;;;2.87;1.00;;;10.00;86.60;;;;;;4950522;28;20467;-47
2022/01/03 05:38:26;;;;;;;5.47;1.47;;;10.00;86.90;;;;;;4951598;28;20466;-47
2022/01/03 05:40:53;;;;;;;2.67;1.17;;;10.00;86.50;;;;;;4951925;28;20465;-47
2022/01/03 05:43:20;;;;;;;2.50;1.00;;;10.00;86.10;;;;;;4964309;28;20857;-47
2022/01/03 05:45:47;;;;;;;5.80;1.60;;;10.10;86.00;;;;;;4951370;28;20474;-47
2022/01/03 05:48:14;;;;;;;13.00;6.33;;;10.10;85.80;;;;;;4948057;28;20893;-47
2022/01/03 05:50:40;;;;;;;3.90;3.37;;;10.10;86.00;;;;;;4951152;28;20474;-47
2022/01/03 05:53:07;;;;;;;4.07;1.30;;;10.10;85.90;;;;;;4952456;28;20495;-47
2022/01/03 05:55:34;;;;;;;2.40;1.27;;;10.10;85.70;;;;;;4949678;28;20474;-48
2022/01/03 05:58:01;;;;;;;6.80;2.70;;;10.10;85.90;;;;;;4948947;28;20463;-48
2022/01/03 06:00:28;;;;;;;2.57;1.10;;;10.10;85.90;;;;;;4950734;28;20459;-47
2022/01/03 06:02:58;;;;;;;7.20;1.07;;;10.10;86.00;;;;;;4952993;28;20471;-48
2022/01/03 06:08:02;;;;;;;2.10;1.10;;;10.10;85.60;;;;;;4953185;28;20468;-47
2022/01/03 06:10:29;;;;;;;3.47;1.30;;;10.10;85.80;;;;;;4953495;28;21034;-48
2022/01/03 06:12:56;;;;;;;3.90;1.20;;;10.10;86.00;;;;;;4948920;28;21475;-48
2022/01/03 06:15:25;;;;;;;3.10;0.90;;;10.00;85.60;;;;;;4953802;28;21251;-47
2022/01/03 06:17:53;;;;;;;2.80;1.53;;;10.00;85.80;;;;;;4954355;28;20497;-47
2022/01/03 06:20:20;;;;;;;3.80;1.17;;;10.00;86.10;;;;;;4943211;28;20486;-47
2022/01/03 06:22:47;;;;;;;1.47;0.63;;;10.00;86.40;;;;;;4950902;28;20574;-47
2022/01/03 06:25:13;;;;;;;7.53;1.80;;;10.00;86.30;;;;;;4966188;28;20478;-47
2022/01/03 06:27:40;;;;;;;1.87;0.60;;;10.00;86.30;;;;;;4952753;28;20482;-47
2022/01/03 06:30:08;;;;;;;2.47;0.87;;;10.00;85.70;;;;;;4949685;28;20481;-47
2022/01/03 06:32:36;;;;;;;5.73;0.90;;;10.00;85.70;;;;;;4947846;28;20470;-47
2022/01/03 06:35:03;;;;;;;3.70;0.70;;;10.00;85.70;;;;;;4952690;28;20463;-48
2022/01/03 06:37:30;;;;;;;3.17;1.10;;;10.00;85.60;;;;;;4948047;28;20488;-47
2022/01/03 06:39:57;;;;;;;1.07;0.40;;;10.00;85.60;;;;;;4946984;28;20462;-48
2022/01/03 06:42:24;;;;;;;1.40;0.57;;;10.00;85.50;;;;;;4963504;28;20841;-48
2022/01/03 06:44:51;;;;;;;6.90;0.73;;;10.00;85.30;;;;;;4948844;28;20470;-47
2022/01/03 06:47:18;;;;;;;1.63;0.63;;;10.00;85.20;;;;;;4951771;28;20542;-47
2022/01/03 06:49:45;;;;;;;1.43;0.80;;;10.00;85.20;;;;;;4952679;28;20941;-47
2022/01/03 06:52:12;;;;;;;1.33;0.90;;;10.00;85.10;;;;;;4949560;28;20461;-47
2022/01/03 06:54:39;;;;;;;2.93;0.67;;;10.00;85.30;;;;;;4947404;28;20490;-48
2022/01/03 06:57:06;;;;;;;1.13;0.60;;;10.00;85.70;;;;;;4964402;28;20451;-47
2022/01/03 06:59:33;;;;;;;4.97;1.17;;;9.90;86.10;;;;;;4948520;28;20467;-47
2022/01/03 07:02:00;;;;;;;9.50;1.57;;;9.90;86.40;;;;;;4954171;28;20558;-48
2022/01/03 07:04:27;;;;;;;2.37;2.13;;;9.90;87.20;;;;;;4966688;28;20960;-47
2022/01/03 07:06:57;;;;;;;4.80;2.17;;;9.90;87.70;;;;;;4949154;28;20478;-47
2022/01/03 07:09:23;;;;;;;3.17;2.87;;;9.90;88.00;;;;;;4966584;28;20462;-47
2022/01/03 07:11:51;;;;;;;5.50;2.10;;;9.80;87.90;;;;;;4948314;28;21008;-47
2022/01/03 07:19:42;;;;;;;1.33;1.20;;;9.80;88.10;;;;;;4948969;28;20471;-47
2022/01/03 07:22:09;;;;;;;2.90;1.27;;;9.80;88.10;;;;;;4951209;28;20473;-47
2022/01/03 07:24:37;;;;;;;2.10;1.00;;;9.80;88.10;;;;;;4964318;28;20466;-47
2022/01/03 07:27:07;;;;;;;4.07;1.30;;;9.80;88.00;;;;;;4953796;28;20554;-47
2022/01/03 07:29:35;;;;;;;3.83;1.63;;;9.80;88.10;;;;;;4959371;28;20463;-47
2022/01/03 07:32:02;;;;;;;6.33;1.50;;;9.80;88.00;;;;;;4951106;28;20977;-46
2022/01/03 07:34:29;;;;;;;2.70;1.20;;;9.80;88.20;;;;;;4945041;28;20492;-47
2022/01/03 07:36:56;;;;;;;4.73;1.93;;;9.80;88.20;;;;;;4953186;28;20466;-50
2022/01/03 07:39:23;;;;;;;8.93;5.80;;;9.90;88.10;;;;;;4949118;28;20469;-50
2022/01/03 07:41:50;;;;;;;5.40;2.23;;;9.90;88.00;;;;;;4949207;28;20467;-50
2022/01/03 07:44:17;;;;;;;7.63;1.90;;;9.90;88.00;;;;;;4946755;28;20491;-49
2022/01/03 07:46:43;;;;;;;8.73;2.20;;;10.00;87.60;;;;;;4948282;28;20471;-50
2022/01/03 07:49:10;;;;;;;5.90;2.50;;;10.00;87.30;;;;;;4952324;28;20469;-50
2022/01/03 07:51:37;;;;;;;5.83;1.60;;;10.10;87.00;;;;;;4948969;28;20987;-49
2022/01/03 07:54:04;;;;;;;6.93;2.27;;;10.10;86.80;;;;;;4955230;28;21019;-49
2022/01/03 07:56:32;;;;;;;7.93;3.70;;;10.10;87.10;;;;;;4968233;28;21023;-49
2022/01/03 07:59:01;;;;;;;5.03;1.70;;;10.10;86.50;;;;;;4969362;28;20828;-49
2022/01/03 08:01:27;;;;;;;9.10;2.20;;;10.10;86.40;;;;;;4953882;28;20454;-50
2022/01/03 08:03:54;;;;;;;8.70;2.70;;;10.10;86.30;;;;;;4953724;28;20455;-50
2022/01/03 08:06:41;;;;;;;4.60;1.33;;;10.20;86.10;;;;;;4949997;28;20473;-50
2022/01/03 08:09:08;;;;;;;8.13;1.93;;;10.20;86.30;;;;;;4952016;28;20466;-50
2022/01/03 08:11:35;;;;;;;8.83;2.23;;;10.20;86.10;;;;;;4951132;28;20451;-50
2022/01/03 08:14:02;;;;;;;3.90;1.87;;;10.20;86.00;;;;;;4951161;28;20491;-49
2022/01/03 08:16:29;;;;;;;5.50;1.83;;;10.20;85.60;;;;;;4950327;28;20459;-49
2022/01/03 08:18:56;;;;;;;4.70;1.97;;;10.30;85.00;;;;;;4947298;28;20522;-49
2022/01/03 08:21:24;;;;;;;10.23;2.80;;;10.30;84.80;;;;;;4950808;28;20468;-49
2022/01/03 08:23:51;;;;;;;5.03;1.27;;;10.30;84.50;;;;;;4951056;28;20483;-49
2022/01/03 08:26:18;;;;;;;2.57;1.20;;;10.30;84.30;;;;;;4948737;28;20479;-50
2022/01/03 08:28:45;;;;;;;9.93;2.07;;;10.40;84.20;;;;;;4950583;28;20472;-49
2022/01/03 08:31:12;;;;;;;3.23;1.77;;;10.40;84.10;;;;;;4945718;28;21331;-49
2022/01/03 08:33:40;;;;;;;5.30;2.07;;;10.40;83.80;;;;;;4945331;28;20826;-50
2022/01/03 08:36:07;;;;;;;3.20;1.37;;;10.40;84.00;;;;;;4943292;28;21232;-50
2022/01/03 08:38:33;;;;;;;7.00;1.40;;;10.40;83.80;;;;;;4947824;28;21548;-49
2022/01/03 08:41:01;;;;;;;7.10;2.53;;;10.40;83.90;;;;;;4945533;28;20887;-49
2022/01/03 08:43:30;;;;;;;8.67;1.30;;;10.40;83.70;;;;;;4948705;28;20789;-49
2022/01/03 08:45:57;;;;;;;5.07;2.10;;;10.40;83.90;;;;;;4939107;28;20541;-49
2022/01/03 08:48:25;;;;;;;5.93;1.90;;;10.40;83.80;;;;;;4949093;28;20975;-49
2022/01/03 08:50:51;;;;;;;3.87;1.40;;;10.40;84.20;;;;;;4953404;28;20474;-49
2022/01/03 08:53:21;;;;;;;4.07;1.90;;;10.40;84.30;;;;;;4970439;28;20494;-50
2022/01/03 08:55:48;;;;;;;4.23;1.63;;;10.50;84.10;;;;;;4958069;28;20470;-49
2022/01/03 08:58:16;;;;;;;9.07;2.10;;;10.50;84.00;;;;;;4971956;28;20459;-49
2022/01/03 09:00:43;;;;;;;3.60;1.50;;;10.50;84.40;;;;;;4952983;28;20834;-50
2022/01/03 09:03:11;;;;;;;5.90;1.40;;;10.50;84.30;;;;;;4951424;28;22125;-50
2022/01/03 09:05:38;;;;;;;7.90;2.40;;;10.50;84.40;;;;;;4951806;28;20549;-50
2022/01/03 09:08:05;;;;;;;11.67;2.23;;;10.50;84.70;;;;;;4965755;28;20463;-49
2022/01/03 09:10:32;;;;;;;5.03;1.70;;;10.50;84.70;;;;;;4962387;28;20482;-48
2022/01/03 09:12:59;;;;;;;5.33;1.90;;;10.50;84.80;;;;;;4950778;28;20876;-49
2022/01/03 09:15:26;;;;;;;12.27;2.27;;;10.50;85.30;;;;;;4954293;28;20487;-49
2022/01/03 09:17:53;;;;;;;13.50;7.00;;;10.50;85.40;;;;;;4955567;28;20984;-49
2022/01/03 09:20:21;;;;;;;15.70;8.90;;;10.50;85.40;;;;;;4958733;28;20470;-49
2022/01/03 09:22:54;;;;;;;15.60;8.53;;;10.50;85.60;;;;;;4956937;28;20485;-49
2022/01/03 09:30:50;;;;;;;16.93;11.73;;;10.60;86.10;;;;;;4952238;28;20838;-49
2022/01/03 09:33:17;;;;;;;13.37;10.00;;;10.60;86.40;;;;;;4952445;28;20471;-49
2022/01/03 09:35:44;;;;;;;18.03;9.70;;;10.60;86.60;;;;;;4955098;28;20960;-49
2022/01/03 09:38:11;;;;;;;12.23;6.53;;;10.60;86.80;;;;;;4954556;28;20466;-49
2022/01/03 09:40:40;;;;;;;17.63;10.20;;;10.60;86.70;;;;;;4957543;28;20473;-49
2022/01/03 09:43:09;;;;;;;12.90;8.77;;;10.60;86.80;;;;;;4955619;28;20877;-48
2022/01/03 09:45:37;;;;;;;7.00;4.63;;;10.60;86.90;;;;;;4972463;28;20463;-48
2022/01/03 09:48:13;;;;;;;9.33;4.13;;;10.60;86.80;;;;;;4956904;28;20850;-49
2022/01/03 09:50:42;;;;;;;14.17;5.00;;;10.60;87.10;;;;;;4972289;28;20455;-48
2022/01/03 09:53:10;;;;;;;7.13;2.80;;;10.60;87.10;;;;;;4957560;28;20455;-48
2022/01/03 09:55:37;;;;;;;6.13;2.50;;;10.70;87.10;;;;;;4955336;28;20676;-49
2022/01/03 09:58:04;;;;;;;6.80;2.73;;;10.70;87.30;;;;;;4958495;28;20474;-49
2022/01/03 10:00:32;;;;;;;6.57;1.80;;;10.70;87.20;;;;;;4952501;28;20478;-49
2022/01/03 10:02:59;;;;;;;5.43;3.10;;;10.80;87.10;;;;;;4967589;28;20479;-49
2022/01/03 10:05:26;;;;;;;6.97;2.70;;;10.80;86.80;;;;;;4955408;28;20984;-49
2022/01/03 10:07:54;;;;;;;5.20;2.00;;;10.80;86.80;;;;;;4958140;28;20546;-48
2022/01/03 10:10:21;;;;;;;3.70;2.00;;;10.80;87.00;;;;;;4956316;28;21094;-48
2022/01/03 10:12:48;;;;;;;4.43;1.60;;;10.90;87.00;;;;;;4954417;28;20473;-48
2022/01/03 10:15:15;;;;;;;5.27;2.10;;;10.90;86.70;;;;;;4956088;28;20569;-45
2022/01/03 10:17:42;;;;;;;9.90;1.83;;;10.90;86.30;;;;;;4968707;28;20461;-45
2022/01/03 10:20:16;;;;;;;4.30;2.03;;;11.00;86.00;;;;;;4958941;28;20455;-45
2022/01/03 10:22:49;;;;;;;5.67;2.30;;;11.00;86.40;;;;;;4950238;28;20483;-49
2022/01/03 10:25:16;;;;;;;15.50;2.30;;;11.00;86.50;;;;;;4972884;28;20463;-48
2022/01/03 10:27:56;;;;;;;10.97;2.87;;;10.90;86.40;;;;;;4959160;28;20458;-48
2022/01/03 10:30:45;;;;;;;7.60;1.80;;;10.90;86.50;;;;;;4944149;28;20465;-48
2022/01/03 10:33:21;;;;;;;6.77;2.43;;;10.90;86.80;;;;;;4965214;28;20478;-48
2022/01/03 10:35:51;;;;;;;7.40;2.00;;;11.00;86.60;;;;;;4955993;28;20849;-48
2022/01/03 10:38:32;;;;;;;8.03;2.37;;;11.00;86.90;;;;;;4953939;28;20458;-46
2022/01/03 10:41:28;;;;;;;13.07;3.93;;;11.00;86.60;;;;;;4949176;28;20470;-46
2022/01/03 10:43:57;;;;;;;8.23;4.63;;;11.00;86.70;;;;;;4931811;28;20821;-46
2022/01/03 10:46:30;;;;;;;16.67;5.10;;;11.00;86.80;;;;;;4954762;28;20459;-45
2022/01/03 10:49:19;;;;;;;11.73;3.57;;;11.00;87.00;;;;;;4951184;28;20953;-46
2022/01/03 10:51:48;;;;;;;9.53;2.43;;;11.00;87.50;;;;;;4949810;28;20469;-46
2022/01/03 10:54:17;;;;;;;5.50;1.77;;;11.10;87.10;;;;;;4951139;28;20483;-46
2022/01/03 10:56:47;;;;;;;6.00;2.67;;;11.10;86.60;;;;;;4948766;28;20470;-46
2022/01/03 10:59:14;;;;;;;11.17;3.43;;;11.10;86.70;;;;;;4963436;28;20491;-46
2022/01/03 11:01:50;;;;;;;10.47;2.60;;;11.10;87.00;;;;;;4950462;28;20459;-46
2022/01/03 11:04:50;;;;;;;11.17;2.70;;;11.10;86.90;;;;;;4944794;28;20468;-46
2022/01/03 11:13:15;;;;;;;10.53;2.70;;;11.20;87.10;;;;;;4945746;28;20471;-46
2022/01/03 11:15:51;;;;;;;4.50;3.43;;;11.20;87.10;;;;;;4952096;28;20542;-46
2022/01/03 11:18:26;;;;;;;5.23;2.10;;;11.20;86.80;;;;;;4946073;28;20459;-46
2022/01/03 11:21:23;;;;;;;6.33;2.03;;;11.20;86.20;;;;;;4962595;28;20477;-46
2022/01/03 11:24:01;;;;;;;8.00;2.90;;;11.20;86.50;;;;;;4964257;28;20483;-46
2022/01/03 11:26:35;;;;;;;12.70;2.57;;;11.20;86.00;;;;;;4949749;28;20525;-46
2022/01/03 11:29:03;;;;;;;7.03;2.10;;;11.20;85.30;;;;;;4963738;28;20549;-46
2022/01/03 11:31:33;;;;;;;6.70;2.20;;;11.20;85.60;;;;;;4953850;28;21084;-46
2022/01/03 11:34:01;;;;;;;6.10;2.13;;;11.30;85.20;;;;;;4949155;28;20546;-46
2022/01/03 11:36:48;;;;;;;11.53;2.40;;;11.30;85.30;;;;;;4954149;28;20966;-46
2022/01/03 11:39:19;;;;;;;9.03;2.17;;;11.30;85.20;;;;;;4949061;28;20491;-49
2022/01/03 11:41:55;;;;;;;9.43;2.53;;;11.30;85.30;;;;;;4957329;28;20474;-49
2022/01/03 11:44:22;;;;;;;5.50;2.20;;;11.30;85.10;;;;;;4969876;28;20475;-49
2022/01/03 11:46:49;;;;;;;11.80;3.03;;;11.30;85.20;;;;;;4939611;28;20457;-45
2022/01/03 11:49:18;;;;;;;15.03;2.53;;;11.40;84.10;;;;;;4950910;28;20471;-46
2022/01/03 11:51:45;;;;;;;7.77;2.50;;;11.40;84.20;;;;;;4942168;28;20471;-46
2022/01/03 11:54:17;;;;;;;9.67;2.33;;;11.40;84.20;;;;;;4950640;28;21045;-45
2022/01/03 11:56:49;;;;;;;7.07;2.90;;;11.40;84.30;;;;;;4946471;28;20455;-45
2022/01/03 12:04:58;;;;;;;11.63;3.10;;;11.50;83.10;;;;;;4948686;28;20462;-46
2022/01/03 12:07:26;;;;;;;7.20;1.90;;;11.50;82.80;;;;;;4949767;28;20463;-46
2022/01/03 12:10:05;;;;;;;8.33;2.37;;;11.60;82.90;;;;;;4951032;28;20447;-46
2022/01/03 12:12:38;;;;;;;7.50;2.60;;;11.60;82.20;;;;;;4951136;28;20459;-46
2022/01/03 12:15:26;;;;;;;5.93;1.97;;;11.60;82.00;;;;;;4950037;28;20564;-46
2022/01/03 12:17:53;;;;;;;9.23;2.20;;;11.70;82.20;;;;;;4954561;28;20465;-46
2022/01/03 12:20:36;;;;;;;6.83;2.30;;;11.70;81.40;;;;;;4966026;28;20474;-46
2022/01/03 12:23:04;;;;;;;6.70;2.47;;;11.70;81.80;;;;;;4952742;28;20530;-46
2022/01/03 12:25:32;;;;;;;5.10;2.60;;;11.80;82.00;;;;;;4948731;28;20858;-47
2022/01/03 12:28:02;;;;;;;9.93;2.77;;;11.80;81.60;;;;;;4947846;28;20565;-46
2022/01/03 12:30:37;;;;;;;9.47;2.93;;;11.80;80.70;;;;;;4952561;28;20977;-46
2022/01/03 12:33:07;;;;;;;10.10;2.07;;;11.90;80.40;;;;;;4966524;28;21335;-45
2022/01/03 12:35:36;;;;;;;10.53;2.20;;;11.90;80.50;;;;;;4949102;28;20599;-46
2022/01/03 12:38:04;;;;;;;5.60;2.20;;;12.00;80.60;;;;;;4950057;28;20544;-46
2022/01/03 12:40:53;;;;;;;7.57;2.50;;;12.00;80.30;;;;;;4951892;28;20475;-46
2022/01/03 12:43:34;;;;;;;8.37;2.17;;;12.10;80.10;;;;;;4945015;28;20470;-46
2022/01/03 12:46:02;;;;;;;6.10;2.10;;;12.10;79.50;;;;;;4943949;28;20991;-46
2022/01/03 12:48:32;;;;;;;8.60;2.10;;;12.20;79.60;;;;;;4954775;28;20470;-47
2022/01/03 12:51:00;;;;;;;7.63;1.60;;;12.30;79.90;;;;;;4955431;28;20493;-46
2022/01/03 12:53:26;;;;;;;2.97;1.83;;;12.40;78.90;;;;;;4950603;28;20465;-46
2022/01/03 12:56:07;;;;;;;5.63;2.20;;;12.50;78.50;;;;;;4954612;28;21007;-50
2022/01/03 12:58:33;;;;;;;5.30;2.00;;;12.50;78.10;;;;;;4974359;28;20549;-49
2022/01/03 13:01:11;;;;;;;13.30;4.80;;;12.60;76.70;;;;;;4963206;28;20490;-49
2022/01/03 13:03:49;;;;;;;4.87;1.83;;;12.60;76.70;;;;;;4964631;28;20450;-49
2022/01/03 13:06:19;;;;;;;9.30;2.40;;;12.60;76.70;;;;;;4959879;28;20468;-49
2022/01/03 13:08:53;;;;;;;7.10;2.03;;;12.60;77.50;;;;;;4954442;28;20901;-46
2022/01/03 13:11:21;;;;;;;9.20;2.00;;;12.60;77.30;;;;;;4967003;28;20485;-46
2022/01/03 13:13:51;;;;;;;8.23;1.93;;;12.60;77.00;;;;;;4954242;28;20494;-46
2022/01/03 13:16:21;;;;;;;5.00;2.20;;;12.60;76.70;;;;;;4963524;28;21012;-46
2022/01/03 13:18:50;;;;;;;6.40;1.90;;;12.70;76.50;;;;;;4950976;28;20466;-46
2022/01/03 13:21:18;;;;;;;4.27;1.80;;;12.70;76.70;;;;;;4949714;28;20463;-46
2022/01/03 13:23:52;;;;;;;5.63;1.60;;;12.70;76.50;;;;;;4956010;28;20489;-46